createdAt,value
2023-04-02T00:02:02.056Z,66.42
2023-04-02T00:05:35.050Z,65.81
2023-04-02T00:08:56.987Z,65.79
2023-04-02T00:12:32.575Z,65.66
2023-04-02T00:15:55.330Z,65.47
2023-04-02T00:19:18.939Z,65.59
2023-04-02T00:30:13.395Z,65.55
2023-04-02T00:33:51.574Z,65.76
2023-04-02T00:37:00.078Z,65.77
2023-04-02T00:40:26.884Z,65.71
2023-04-02T00:43:37.129Z,65.78
2023-04-02T00:46:55.954Z,65.83
2023-04-02T00:50:31.274Z,65.52
2023-04-02T00:53:43.655Z,64.95
2023-04-02T00:56:55.883Z,65.32
2023-04-02T01:00:20.059Z,65.29
2023-04-02T01:03:31.273Z,64.93
2023-04-02T01:06:38.414Z,65.04
2023-04-02T01:09:53.559Z,65.74
2023-04-02T01:13:24.787Z,65.25
2023-04-02T01:17:11.363Z,65.14
2023-04-02T01:21:01.730Z,65.02
2023-04-02T01:24:11.221Z,65.13
2023-04-02T01:28:02.770Z,65.87
2023-04-02T01:31:27.994Z,65.29
2023-04-02T01:34:48.250Z,65.13
2023-04-02T01:38:27.480Z,65.69
2023-04-02T01:42:04.214Z,65.54
2023-04-02T01:45:54.441Z,65.29
2023-04-02T01:49:14.045Z,66.42
2023-04-02T01:58:08.226Z,65.73
2023-04-02T02:05:30.840Z,65.82
2023-04-02T02:09:16.017Z,66.37
2023-04-02T02:17:01.287Z,66.08
2023-04-02T02:20:46.213Z,66.15
2023-04-02T02:24:52.889Z,66.08
2023-04-02T02:28:57.894Z,66.62
2023-04-02T02:32:16.907Z,66.55
2023-04-02T02:40:21.770Z,66.75
2023-04-02T02:56:12.201Z,67.25
2023-04-02T02:59:28.213Z,66.89
2023-04-02T03:02:40.410Z,68.05
2023-04-02T03:05:58.362Z,67.81
2023-04-02T03:09:34.740Z,67.68
2023-04-02T03:13:15.988Z,67.37
2023-04-02T03:16:48.491Z,67.41
2023-04-02T03:20:12.747Z,67.43
2023-04-02T03:23:44.782Z,67.64
2023-04-02T03:27:22.662Z,67.63
2023-04-02T03:35:20.625Z,67.01
2023-04-02T03:38:58.461Z,68.04
2023-04-02T03:42:51.077Z,68.37
2023-04-02T03:46:48.260Z,68.46
2023-04-02T03:50:39.761Z,68.59
2023-04-02T03:57:41.408Z,69.50
2023-04-02T04:01:15.385Z,69.56
2023-04-02T04:05:15.011Z,69.35
2023-04-02T04:09:12.013Z,68.93
2023-04-02T04:16:36.582Z,68.69
2023-04-02T04:20:01.949Z,69.27
2023-04-02T04:23:44.424Z,69.28
2023-04-02T04:27:17.492Z,69.37
2023-04-02T04:31:27.306Z,68.43
2023-04-02T04:35:07.007Z,68.22
2023-04-02T04:43:20.938Z,68.93
2023-04-02T04:51:43.936Z,68.64
2023-04-02T05:03:14.613Z,69.48
2023-04-02T05:12:13.915Z,69.26
2023-04-02T05:16:43.987Z,68.83
2023-04-02T05:29:53.364Z,68.95
2023-04-02T05:42:21.549Z,67.55
2023-04-02T05:55:35.843Z,66.56
2023-04-02T06:04:40.938Z,66.36
2023-04-02T06:08:40.331Z,65.06
2023-04-02T06:16:41.652Z,64.78
2023-04-02T06:20:24.069Z,64.49
2023-04-02T06:24:05.111Z,63.73
2023-04-02T06:27:35.721Z,64.00
2023-04-02T06:31:16.697Z,63.95
2023-04-02T06:43:07.076Z,58.27
2023-04-02T06:47:35.312Z,60.18
2023-04-02T06:56:09.614Z,61.09
2023-04-02T07:08:22.716Z,59.76
2023-04-02T07:16:39.962Z,48.91
2023-04-02T07:20:43.559Z,52.35
2023-04-02T07:24:11.559Z,57.24
2023-04-02T07:28:03.951Z,58.10
2023-04-02T07:32:14.976Z,58.31
2023-04-02T07:35:42.653Z,59.00
2023-04-02T07:39:05.668Z,58.58
2023-04-02T07:42:19.380Z,59.08
2023-04-02T07:45:37.005Z,58.34
2023-04-02T07:48:55.909Z,58.55
2023-04-02T07:56:04.498Z,58.19
2023-04-02T07:59:35.091Z,57.24
2023-04-02T08:06:57.685Z,56.57
2023-04-02T08:10:28.274Z,57.29
2023-04-02T08:17:28.056Z,58.25
2023-04-02T08:21:08.284Z,58.95
2023-04-02T08:25:17.364Z,58.19
2023-04-02T09:00:16.730Z,57.21
2023-04-02T09:04:38.665Z,56.61
2023-04-02T09:12:51.831Z,55.25
2023-04-02T09:17:23.525Z,55.94
2023-04-02T09:47:08.560Z,53.21
2023-04-02T09:59:41.939Z,53.95
2023-04-02T10:25:26.009Z,54.60
2023-04-02T10:28:23.698Z,54.05
2023-04-02T10:32:03.449Z,54.14
2023-04-02T10:35:53.356Z,53.03
2023-04-02T10:39:24.825Z,53.39
2023-04-02T10:42:37.055Z,52.83
2023-04-02T10:46:16.074Z,53.07
2023-04-02T10:49:55.423Z,53.52
2023-04-02T10:53:20.722Z,54.12
2023-04-02T10:56:29.781Z,53.29
2023-04-02T10:59:43.740Z,54.40
2023-04-02T11:03:08.428Z,53.79
2023-04-02T11:06:28.510Z,54.48
2023-04-02T11:09:43.352Z,53.55
2023-04-02T11:12:59.999Z,52.91
2023-04-02T11:16:13.219Z,52.66
2023-04-02T11:19:19.938Z,51.05
2023-04-02T11:22:25.055Z,50.77
2023-04-02T11:25:32.571Z,51.11
2023-04-02T11:28:45.870Z,49.23
2023-04-02T11:32:18.082Z,49.07
2023-04-02T11:35:42.342Z,47.99
2023-04-02T11:39:07.629Z,47.35
2023-04-02T11:42:21.240Z,48.09
2023-04-02T11:45:27.798Z,48.41
2023-04-02T11:48:41.622Z,49.35
2023-04-02T11:52:13.009Z,49.04
2023-04-02T11:55:35.511Z,49.28
2023-04-02T11:58:55.632Z,49.87
2023-04-02T12:02:25.564Z,47.88
2023-04-02T12:05:58.455Z,43.92
2023-04-02T12:09:39.597Z,43.76
2023-04-02T12:12:59.132Z,44.07
2023-04-02T12:16:16.199Z,43.37
2023-04-02T12:19:27.615Z,44.09
2023-04-02T12:23:03.751Z,43.60
2023-04-02T12:26:49.496Z,43.97
2023-04-02T12:30:16.923Z,43.33
2023-04-02T12:34:11.165Z,44.55
2023-04-02T12:37:46.264Z,45.22
2023-04-02T12:45:42.938Z,45.76
2023-04-02T12:50:16.755Z,45.89
2023-04-02T12:53:47.180Z,47.35
2023-04-02T12:57:24.166Z,48.13
2023-04-02T13:00:58.615Z,48.03
2023-04-02T13:04:27.489Z,49.04
2023-04-02T13:08:18.957Z,47.20
2023-04-02T13:15:33.468Z,47.07
2023-04-02T13:19:27.302Z,47.88
2023-04-02T13:22:42.977Z,47.69
2023-04-02T13:25:50.344Z,47.41
2023-04-02T13:29:13.889Z,46.33
2023-04-02T13:32:23.115Z,47.17
2023-04-02T13:35:45.417Z,47.09
2023-04-02T13:39:19.299Z,46.98
2023-04-02T13:42:49.690Z,46.83
2023-04-02T13:46:23.227Z,47.13
2023-04-02T13:49:32.785Z,47.71
2023-04-02T13:52:40.982Z,47.20
2023-04-02T13:55:50.293Z,46.71
2023-04-02T13:59:17.116Z,44.17
2023-04-02T14:02:35.232Z,44.40
2023-04-02T14:05:50.635Z,43.72
2023-04-02T14:09:39.407Z,43.87
2023-04-02T14:13:04.249Z,45.38
2023-04-02T14:17:03.650Z,45.97
2023-04-02T14:20:44.032Z,46.27
2023-04-02T14:24:19.012Z,47.05
2023-04-02T14:28:02.861Z,46.52
2023-04-02T14:35:43.729Z,45.39
2023-04-02T14:40:02.769Z,45.15
2023-04-02T14:43:35.273Z,48.91
2023-04-02T14:47:18.188Z,50.60
2023-04-02T14:51:24.724Z,52.86
2023-04-02T14:55:00.738Z,50.94
2023-04-02T14:58:27.255Z,52.66
2023-04-02T15:01:43.903Z,53.63
2023-04-02T15:05:14.749Z,55.14
2023-04-02T15:08:58.845Z,55.63
2023-04-02T15:12:30.685Z,55.70
2023-04-02T15:15:40.765Z,56.85
2023-04-02T15:19:10.194Z,62.51
2023-04-02T15:23:08.838Z,68.52
2023-04-02T15:26:39.914Z,69.05
2023-04-02T15:30:22.514Z,69.30
2023-04-02T15:34:01.483Z,68.90
2023-04-02T15:46:20.614Z,73.62
2023-04-02T15:50:13.170Z,74.71
2023-04-02T15:54:19.315Z,77.51
2023-04-02T15:58:29.675Z,76.92
2023-04-02T16:02:20.384Z,75.64
2023-04-02T16:05:46.383Z,76.54
2023-04-02T16:09:38.577Z,77.61
2023-04-02T16:13:57.775Z,77.79
2023-04-02T16:27:58.344Z,76.13
2023-04-02T17:20:12.714Z,75.61
2023-04-02T17:24:27.893Z,70.54
2023-04-02T17:28:53.449Z,63.70
2023-04-02T17:32:46.657Z,62.43
2023-04-02T17:40:56.575Z,62.52
2023-04-02T17:45:07.451Z,62.25
2023-04-02T17:49:02.048Z,60.82
2023-04-02T17:57:07.132Z,60.42
2023-04-02T18:14:08.440Z,60.55
2023-04-02T18:34:37.034Z,61.28
2023-04-02T18:48:21.325Z,60.17
2023-04-02T19:10:42.013Z,60.27
2023-04-02T19:14:45.979Z,59.85
2023-04-02T19:34:22.107Z,60.10
2023-04-02T19:50:12.060Z,59.90
2023-04-02T19:53:52.822Z,59.76
2023-04-02T20:14:20.316Z,60.63
2023-04-02T20:17:56.544Z,61.19
2023-04-02T20:33:40.049Z,61.51
2023-04-02T20:37:08.392Z,61.07
2023-04-02T20:40:34.335Z,60.60
2023-04-02T20:44:09.993Z,60.59
2023-04-02T20:47:18.250Z,59.95
2023-04-02T20:50:35.893Z,60.88
2023-04-02T20:53:57.618Z,60.71
2023-04-02T20:57:24.595Z,61.01
2023-04-02T21:00:37.783Z,60.39
2023-04-02T21:03:52.567Z,60.22
2023-04-02T21:40:43.644Z,62.85
2023-04-02T21:54:28.048Z,63.01
2023-04-02T21:57:29.090Z,63.33
2023-04-02T22:01:03.442Z,62.01
2023-04-02T22:04:55.463Z,61.79
2023-04-02T22:08:15.625Z,61.32
2023-04-02T22:15:45.455Z,61.09
2023-04-02T22:19:18.121Z,60.90
2023-04-02T22:23:12.653Z,61.11
2023-04-02T22:26:19.101Z,60.66
2023-04-02T22:30:02.519Z,60.48
2023-04-02T22:37:17.308Z,60.01
2023-04-02T22:55:26.850Z,59.05
2023-04-02T23:03:55.856Z,59.92
2023-04-02T23:07:42.322Z,59.79
2023-04-02T23:11:25.864Z,59.59
2023-04-02T23:15:10.968Z,59.57
2023-04-02T23:18:22.345Z,59.88
2023-04-02T23:21:59.497Z,59.01
2023-04-02T23:25:43.308Z,58.93
2023-04-02T23:29:18.929Z,58.36
2023-04-02T23:33:36.273Z,57.55
2023-04-02T23:36:49.280Z,58.63
2023-04-02T23:40:02.269Z,58.28
2023-04-02T23:43:08.418Z,58.99
2023-04-02T23:46:25.937Z,58.52
2023-04-02T23:49:56.825Z,58.11
2023-04-02T23:53:14.236Z,57.69
2023-04-02T23:56:18.027Z,58.25
2023-04-02T23:59:26.824Z,58.11
